sensor_id;sensor_type;location;lat;lon;timestamp;P1;durP1;ratioP1;P2;durP2;ratioP2
59786;SDS011;45672;51.612;5.536;2022-12-18T00:02:22;55.83;;;24.30;;
59786;SDS011;45672;51.612;5.536;2022-12-18T00:04:47;56.45;;;24.35;;
59786;SDS011;45672;51.612;5.536;2022-12-18T00:07:12;55.22;;;23.92;;
59786;SDS011;45672;51.612;5.536;2022-12-18T00:09:37;65.88;;;26.95;;
59786;SDS011;45672;51.612;5.536;2022-12-18T00:12:03;55.30;;;24.15;;
59786;SDS011;45672;51.612;5.536;2022-12-18T00:14:28;60.05;;;24.45;;
59786;SDS011;45672;51.612;5.536;2022-12-18T00:16:54;55.95;;;24.85;;
59786;SDS011;45672;51.612;5.536;2022-12-18T00:19:19;54.95;;;24.40;;
59786;SDS011;45672;51.612;5.536;2022-12-18T00:21:44;62.35;;;25.20;;
59786;SDS011;45672;51.612;5.536;2022-12-18T00:24:10;60.75;;;25.67;;
59786;SDS011;45672;51.612;5.536;2022-12-18T00:26:36;52.05;;;22.80;;
59786;SDS011;45672;51.612;5.536;2022-12-18T00:29:04;59.70;;;24.88;;
59786;SDS011;45672;51.612;5.536;2022-12-18T00:31:35;55.63;;;22.70;;
59786;SDS011;45672;51.612;5.536;2022-12-18T00:34:01;55.72;;;24.80;;
59786;SDS011;45672;51.612;5.536;2022-12-18T00:36:28;52.45;;;24.38;;
59786;SDS011;45672;51.612;5.536;2022-12-18T00:38:56;57.17;;;24.67;;
59786;SDS011;45672;51.612;5.536;2022-12-18T00:41:23;55.05;;;24.45;;
59786;SDS011;45672;51.612;5.536;2022-12-18T00:44:08;52.38;;;23.13;;
59786;SDS011;45672;51.612;5.536;2022-12-18T00:46:35;48.35;;;22.35;;
59786;SDS011;45672;51.612;5.536;2022-12-18T00:49:01;49.75;;;22.73;;
59786;SDS011;45672;51.612;5.536;2022-12-18T00:51:26;57.58;;;25.95;;
59786;SDS011;45672;51.612;5.536;2022-12-18T00:53:52;52.58;;;25.38;;
59786;SDS011;45672;51.612;5.536;2022-12-18T00:56:17;60.13;;;25.27;;
59786;SDS011;45672;51.612;5.536;2022-12-18T00:58:46;53.70;;;23.17;;
59786;SDS011;45672;51.612;5.536;2022-12-18T01:01:11;59.97;;;25.20;;
59786;SDS011;45672;51.612;5.536;2022-12-18T01:03:36;59.05;;;25.30;;
59786;SDS011;45672;51.612;5.536;2022-12-18T01:06:09;55.25;;;23.33;;
59786;SDS011;45672;51.612;5.536;2022-12-18T01:08:36;54.15;;;23.83;;
59786;SDS011;45672;51.612;5.536;2022-12-18T01:11:16;56.30;;;24.50;;
59786;SDS011;45672;51.612;5.536;2022-12-18T01:13:42;53.53;;;22.80;;
59786;SDS011;45672;51.612;5.536;2022-12-18T01:16:10;53.63;;;23.48;;
59786;SDS011;45672;51.612;5.536;2022-12-18T01:18:36;53.15;;;23.77;;
59786;SDS011;45672;51.612;5.536;2022-12-18T01:21:05;57.88;;;23.73;;
59786;SDS011;45672;51.612;5.536;2022-12-18T01:23:34;55.33;;;24.73;;
59786;SDS011;45672;51.612;5.536;2022-12-18T01:26:33;54.00;;;24.35;;
59786;SDS011;45672;51.612;5.536;2022-12-18T01:28:54;53.13;;;24.38;;
59786;SDS011;45672;51.612;5.536;2022-12-18T01:31:22;56.67;;;26.35;;
59786;SDS011;45672;51.612;5.536;2022-12-18T01:33:52;62.50;;;25.92;;
59786;SDS011;45672;51.612;5.536;2022-12-18T01:36:22;54.28;;;23.85;;
59786;SDS011;45672;51.612;5.536;2022-12-18T01:38:52;59.78;;;24.85;;
59786;SDS011;45672;51.612;5.536;2022-12-18T01:41:20;54.85;;;24.35;;
59786;SDS011;45672;51.612;5.536;2022-12-18T01:46:19;54.50;;;22.48;;
59786;SDS011;45672;51.612;5.536;2022-12-18T01:48:47;55.67;;;25.27;;
59786;SDS011;45672;51.612;5.536;2022-12-18T01:51:14;52.30;;;24.77;;
59786;SDS011;45672;51.612;5.536;2022-12-18T01:53:41;46.08;;;20.58;;
59786;SDS011;45672;51.612;5.536;2022-12-18T01:56:08;54.15;;;24.38;;
59786;SDS011;45672;51.612;5.536;2022-12-18T01:58:48;54.42;;;23.65;;
59786;SDS011;45672;51.612;5.536;2022-12-18T02:01:25;52.13;;;23.50;;
59786;SDS011;45672;51.612;5.536;2022-12-18T02:03:51;51.63;;;23.60;;
59786;SDS011;45672;51.612;5.536;2022-12-18T02:06:32;48.72;;;24.05;;
59786;SDS011;45672;51.612;5.536;2022-12-18T02:27:47;44.67;;;21.52;;
59786;SDS011;45672;51.612;5.536;2022-12-18T02:30:15;46.97;;;21.10;;
59786;SDS011;45672;51.612;5.536;2022-12-18T02:32:44;52.05;;;22.48;;
59786;SDS011;45672;51.612;5.536;2022-12-18T02:35:15;52.63;;;23.10;;
59786;SDS011;45672;51.612;5.536;2022-12-18T02:37:45;47.28;;;21.92;;
59786;SDS011;45672;51.612;5.536;2022-12-18T02:40:12;45.95;;;22.10;;
59786;SDS011;45672;51.612;5.536;2022-12-18T02:42:39;51.47;;;23.92;;
59786;SDS011;45672;51.612;5.536;2022-12-18T02:45:04;42.85;;;21.48;;
59786;SDS011;45672;51.612;5.536;2022-12-18T02:47:31;49.70;;;22.20;;
59786;SDS011;45672;51.612;5.536;2022-12-18T02:52:56;45.70;;;20.00;;
59786;SDS011;45672;51.612;5.536;2022-12-18T03:03:09;42.83;;;20.35;;
59786;SDS011;45672;51.612;5.536;2022-12-18T03:05:41;42.47;;;20.27;;
59786;SDS011;45672;51.612;5.536;2022-12-18T03:08:16;46.55;;;20.15;;
59786;SDS011;45672;51.612;5.536;2022-12-18T03:13:26;39.05;;;17.95;;
59786;SDS011;45672;51.612;5.536;2022-12-18T03:15:56;47.47;;;20.75;;
59786;SDS011;45672;51.612;5.536;2022-12-18T03:21:08;39.80;;;19.42;;
59786;SDS011;45672;51.612;5.536;2022-12-18T03:23:39;41.95;;;19.58;;
59786;SDS011;45672;51.612;5.536;2022-12-18T03:26:08;43.53;;;20.48;;
59786;SDS011;45672;51.612;5.536;2022-12-18T03:28:36;41.83;;;20.35;;
59786;SDS011;45672;51.612;5.536;2022-12-18T03:31:07;42.92;;;21.23;;
59786;SDS011;45672;51.612;5.536;2022-12-18T03:36:04;46.85;;;20.35;;
59786;SDS011;45672;51.612;5.536;2022-12-18T03:38:30;41.47;;;20.85;;
59786;SDS011;45672;51.612;5.536;2022-12-18T03:43:31;40.47;;;21.17;;
59786;SDS011;45672;51.612;5.536;2022-12-18T03:46:05;40.55;;;19.40;;
59786;SDS011;45672;51.612;5.536;2022-12-18T03:48:41;45.38;;;19.85;;
59786;SDS011;45672;51.612;5.536;2022-12-18T03:53:53;41.63;;;19.40;;
59786;SDS011;45672;51.612;5.536;2022-12-18T03:56:23;35.20;;;18.65;;
59786;SDS011;45672;51.612;5.536;2022-12-18T03:58:54;36.85;;;18.27;;
59786;SDS011;45672;51.612;5.536;2022-12-18T04:01:24;40.38;;;19.55;;
59786;SDS011;45672;51.612;5.536;2022-12-18T04:03:53;33.50;;;15.93;;
59786;SDS011;45672;51.612;5.536;2022-12-18T04:06:19;37.08;;;17.80;;
59786;SDS011;45672;51.612;5.536;2022-12-18T04:08:46;35.50;;;18.67;;
59786;SDS011;45672;51.612;5.536;2022-12-18T04:11:12;31.67;;;17.92;;
59786;SDS011;45672;51.612;5.536;2022-12-18T04:13:37;35.00;;;17.50;;
59786;SDS011;45672;51.612;5.536;2022-12-18T04:16:03;32.03;;;17.65;;
59786;SDS011;45672;51.612;5.536;2022-12-18T04:18:29;38.63;;;18.85;;
59786;SDS011;45672;51.612;5.536;2022-12-18T04:20:55;31.63;;;16.70;;
59786;SDS011;45672;51.612;5.536;2022-12-18T04:23:20;32.10;;;17.63;;
59786;SDS011;45672;51.612;5.536;2022-12-18T04:25:46;36.25;;;18.05;;
59786;SDS011;45672;51.612;5.536;2022-12-18T04:28:13;33.00;;;16.95;;
59786;SDS011;45672;51.612;5.536;2022-12-18T04:30:38;36.15;;;17.52;;
59786;SDS011;45672;51.612;5.536;2022-12-18T04:33:03;30.33;;;15.73;;
59786;SDS011;45672;51.612;5.536;2022-12-18T04:35:29;29.33;;;17.38;;
59786;SDS011;45672;51.612;5.536;2022-12-18T04:37:55;34.05;;;17.77;;
59786;SDS011;45672;51.612;5.536;2022-12-18T04:40:20;33.70;;;16.80;;
59786;SDS011;45672;51.612;5.536;2022-12-18T04:42:46;32.33;;;16.27;;
59786;SDS011;45672;51.612;5.536;2022-12-18T04:45:11;31.90;;;14.85;;
59786;SDS011;45672;51.612;5.536;2022-12-18T04:47:36;32.28;;;16.20;;
59786;SDS011;45672;51.612;5.536;2022-12-18T04:50:02;30.15;;;15.57;;
59786;SDS011;45672;51.612;5.536;2022-12-18T04:52:27;27.20;;;16.05;;
59786;SDS011;45672;51.612;5.536;2022-12-18T04:54:53;29.38;;;15.80;;
59786;SDS011;45672;51.612;5.536;2022-12-18T04:57:18;30.48;;;16.20;;
59786;SDS011;45672;51.612;5.536;2022-12-18T04:59:44;28.85;;;15.65;;
59786;SDS011;45672;51.612;5.536;2022-12-18T05:02:10;28.35;;;14.82;;
59786;SDS011;45672;51.612;5.536;2022-12-18T05:04:35;28.73;;;15.77;;
59786;SDS011;45672;51.612;5.536;2022-12-18T05:07:00;33.58;;;14.95;;
59786;SDS011;45672;51.612;5.536;2022-12-18T05:09:26;25.42;;;14.98;;
59786;SDS011;45672;51.612;5.536;2022-12-18T05:11:51;27.08;;;15.57;;
59786;SDS011;45672;51.612;5.536;2022-12-18T05:14:16;30.65;;;16.10;;
59786;SDS011;45672;51.612;5.536;2022-12-18T05:16:42;29.45;;;16.13;;
59786;SDS011;45672;51.612;5.536;2022-12-18T05:19:07;30.52;;;16.35;;
59786;SDS011;45672;51.612;5.536;2022-12-18T05:21:32;29.40;;;15.52;;
59786;SDS011;45672;51.612;5.536;2022-12-18T05:23:58;27.45;;;15.10;;
59786;SDS011;45672;51.612;5.536;2022-12-18T05:26:23;29.48;;;15.48;;
59786;SDS011;45672;51.612;5.536;2022-12-18T05:28:48;24.85;;;15.27;;
59786;SDS011;45672;51.612;5.536;2022-12-18T05:31:14;32.58;;;15.65;;
59786;SDS011;45672;51.612;5.536;2022-12-18T05:33:39;27.05;;;15.10;;
59786;SDS011;45672;51.612;5.536;2022-12-18T05:36:05;33.10;;;15.95;;
59786;SDS011;45672;51.612;5.536;2022-12-18T05:38:33;28.85;;;15.02;;
59786;SDS011;45672;51.612;5.536;2022-12-18T05:41:01;26.90;;;15.43;;
59786;SDS011;45672;51.612;5.536;2022-12-18T05:43:26;30.13;;;16.08;;
59786;SDS011;45672;51.612;5.536;2022-12-18T05:45:52;30.92;;;16.45;;
59786;SDS011;45672;51.612;5.536;2022-12-18T05:48:18;29.77;;;15.80;;
59786;SDS011;45672;51.612;5.536;2022-12-18T05:50:45;32.60;;;16.27;;
59786;SDS011;45672;51.612;5.536;2022-12-18T05:53:12;30.83;;;15.88;;
59786;SDS011;45672;51.612;5.536;2022-12-18T05:55:39;31.67;;;15.75;;
59786;SDS011;45672;51.612;5.536;2022-12-18T05:58:07;25.55;;;14.25;;
59786;SDS011;45672;51.612;5.536;2022-12-18T06:00:34;29.70;;;15.38;;
59786;SDS011;45672;51.612;5.536;2022-12-18T06:03:04;26.63;;;14.82;;
59786;SDS011;45672;51.612;5.536;2022-12-18T06:05:34;27.80;;;15.20;;
59786;SDS011;45672;51.612;5.536;2022-12-18T06:08:00;29.05;;;15.57;;
59786;SDS011;45672;51.612;5.536;2022-12-18T06:10:25;26.38;;;15.07;;
59786;SDS011;45672;51.612;5.536;2022-12-18T06:12:50;32.13;;;16.27;;
59786;SDS011;45672;51.612;5.536;2022-12-18T06:15:15;27.75;;;15.40;;
59786;SDS011;45672;51.612;5.536;2022-12-18T06:17:41;28.17;;;15.60;;
59786;SDS011;45672;51.612;5.536;2022-12-18T06:20:06;29.67;;;15.55;;
59786;SDS011;45672;51.612;5.536;2022-12-18T06:22:32;26.20;;;14.68;;
59786;SDS011;45672;51.612;5.536;2022-12-18T06:24:57;21.63;;;13.43;;
59786;SDS011;45672;51.612;5.536;2022-12-18T06:27:24;29.42;;;14.55;;
59786;SDS011;45672;51.612;5.536;2022-12-18T06:29:49;27.67;;;15.23;;
59786;SDS011;45672;51.612;5.536;2022-12-18T06:32:15;28.52;;;16.08;;
59786;SDS011;45672;51.612;5.536;2022-12-18T06:34:40;29.88;;;16.30;;
59786;SDS011;45672;51.612;5.536;2022-12-18T06:37:05;29.58;;;15.52;;
59786;SDS011;45672;51.612;5.536;2022-12-18T06:39:31;28.73;;;15.63;;
59786;SDS011;45672;51.612;5.536;2022-12-18T06:41:56;31.73;;;17.20;;
59786;SDS011;45672;51.612;5.536;2022-12-18T06:44:21;27.33;;;14.70;;
59786;SDS011;45672;51.612;5.536;2022-12-18T06:46:47;29.67;;;15.52;;
59786;SDS011;45672;51.612;5.536;2022-12-18T06:49:12;30.17;;;15.98;;
59786;SDS011;45672;51.612;5.536;2022-12-18T06:51:38;30.83;;;15.70;;
59786;SDS011;45672;51.612;5.536;2022-12-18T06:54:03;29.83;;;15.95;;
59786;SDS011;45672;51.612;5.536;2022-12-18T06:56:28;31.33;;;15.15;;
59786;SDS011;45672;51.612;5.536;2022-12-18T06:58:54;26.10;;;14.70;;
59786;SDS011;45672;51.612;5.536;2022-12-18T07:01:20;29.65;;;15.60;;
59786;SDS011;45672;51.612;5.536;2022-12-18T07:03:46;28.20;;;15.35;;
59786;SDS011;45672;51.612;5.536;2022-12-18T07:06:18;28.83;;;15.73;;
59786;SDS011;45672;51.612;5.536;2022-12-18T07:08:45;28.63;;;14.93;;
59786;SDS011;45672;51.612;5.536;2022-12-18T07:11:12;28.05;;;15.05;;
59786;SDS011;45672;51.612;5.536;2022-12-18T07:13:37;32.38;;;16.10;;
59786;SDS011;45672;51.612;5.536;2022-12-18T07:16:07;26.13;;;15.13;;
59786;SDS011;45672;51.612;5.536;2022-12-18T07:18:35;29.02;;;15.70;;
59786;SDS011;45672;51.612;5.536;2022-12-18T07:21:04;29.52;;;16.60;;
59786;SDS011;45672;51.612;5.536;2022-12-18T07:23:31;27.67;;;15.48;;
59786;SDS011;45672;51.612;5.536;2022-12-18T07:26:00;33.70;;;15.80;;
59786;SDS011;45672;51.612;5.536;2022-12-18T07:28:36;25.75;;;14.75;;
59786;SDS011;45672;51.612;5.536;2022-12-18T07:31:06;32.22;;;16.83;;
59786;SDS011;45672;51.612;5.536;2022-12-18T07:33:33;30.00;;;16.48;;
59786;SDS011;45672;51.612;5.536;2022-12-18T07:35:59;31.40;;;16.50;;
59786;SDS011;45672;51.612;5.536;2022-12-18T07:38:25;29.98;;;15.95;;
59786;SDS011;45672;51.612;5.536;2022-12-18T07:40:50;30.90;;;15.75;;
59786;SDS011;45672;51.612;5.536;2022-12-18T07:43:15;33.28;;;16.70;;
59786;SDS011;45672;51.612;5.536;2022-12-18T07:45:41;27.63;;;15.98;;
59786;SDS011;45672;51.612;5.536;2022-12-18T07:48:07;30.20;;;15.00;;
59786;SDS011;45672;51.612;5.536;2022-12-18T07:50:32;25.65;;;15.57;;
59786;SDS011;45672;51.612;5.536;2022-12-18T07:52:57;33.53;;;16.17;;
59786;SDS011;45672;51.612;5.536;2022-12-18T07:55:23;29.40;;;16.02;;
59786;SDS011;45672;51.612;5.536;2022-12-18T07:57:48;25.77;;;15.10;;
59786;SDS011;45672;51.612;5.536;2022-12-18T08:00:15;30.67;;;16.77;;
59786;SDS011;45672;51.612;5.536;2022-12-18T08:02:41;31.13;;;17.33;;
59786;SDS011;45672;51.612;5.536;2022-12-18T08:05:06;28.00;;;16.02;;
59786;SDS011;45672;51.612;5.536;2022-12-18T08:07:32;31.52;;;16.85;;
59786;SDS011;45672;51.612;5.536;2022-12-18T08:09:57;34.67;;;16.25;;
59786;SDS011;45672;51.612;5.536;2022-12-18T08:12:22;30.92;;;16.77;;
59786;SDS011;45672;51.612;5.536;2022-12-18T08:14:47;29.20;;;15.60;;
59786;SDS011;45672;51.612;5.536;2022-12-18T08:17:13;28.92;;;15.60;;
59786;SDS011;45672;51.612;5.536;2022-12-18T08:19:38;25.05;;;14.50;;
59786;SDS011;45672;51.612;5.536;2022-12-18T08:22:03;30.60;;;16.15;;
59786;SDS011;45672;51.612;5.536;2022-12-18T08:24:30;30.33;;;15.70;;
59786;SDS011;45672;51.612;5.536;2022-12-18T08:26:55;31.38;;;15.90;;
59786;SDS011;45672;51.612;5.536;2022-12-18T08:29:22;26.90;;;15.20;;
59786;SDS011;45672;51.612;5.536;2022-12-18T08:31:47;31.23;;;16.65;;
59786;SDS011;45672;51.612;5.536;2022-12-18T08:34:12;39.08;;;16.00;;
59786;SDS011;45672;51.612;5.536;2022-12-18T08:36:38;28.13;;;16.52;;
59786;SDS011;45672;51.612;5.536;2022-12-18T08:39:03;26.33;;;15.23;;
59786;SDS011;45672;51.612;5.536;2022-12-18T08:41:28;28.98;;;15.32;;
59786;SDS011;45672;51.612;5.536;2022-12-18T08:43:55;27.90;;;15.95;;
59786;SDS011;45672;51.612;5.536;2022-12-18T08:46:40;28.52;;;15.18;;
59786;SDS011;45672;51.612;5.536;2022-12-18T08:49:07;26.05;;;15.23;;
59786;SDS011;45672;51.612;5.536;2022-12-18T08:51:33;26.58;;;14.30;;
59786;SDS011;45672;51.612;5.536;2022-12-18T08:53:59;23.95;;;12.50;;
59786;SDS011;45672;51.612;5.536;2022-12-18T08:56:25;28.10;;;16.08;;
59786;SDS011;45672;51.612;5.536;2022-12-18T08:58:53;25.42;;;15.55;;
59786;SDS011;45672;51.612;5.536;2022-12-18T09:01:19;29.42;;;16.33;;
59786;SDS011;45672;51.612;5.536;2022-12-18T09:03:46;31.40;;;17.45;;
59786;SDS011;45672;51.612;5.536;2022-12-18T09:06:19;28.60;;;16.20;;
59786;SDS011;45672;51.612;5.536;2022-12-18T09:08:46;26.67;;;14.85;;
59786;SDS011;45672;51.612;5.536;2022-12-18T09:11:15;30.45;;;15.93;;
59786;SDS011;45672;51.612;5.536;2022-12-18T09:13:45;42.42;;;18.00;;
59786;SDS011;45672;51.612;5.536;2022-12-18T09:16:10;46.85;;;19.23;;
59786;SDS011;45672;51.612;5.536;2022-12-18T09:18:36;31.88;;;16.60;;
59786;SDS011;45672;51.612;5.536;2022-12-18T09:21:07;31.05;;;16.73;;
59786;SDS011;45672;51.612;5.536;2022-12-18T09:25:59;31.48;;;15.32;;
59786;SDS011;45672;51.612;5.536;2022-12-18T09:28:25;27.70;;;15.25;;
59786;SDS011;45672;51.612;5.536;2022-12-18T09:30:51;32.03;;;16.65;;
59786;SDS011;45672;51.612;5.536;2022-12-18T09:33:16;29.55;;;16.40;;
59786;SDS011;45672;51.612;5.536;2022-12-18T09:35:42;30.70;;;16.52;;
59786;SDS011;45672;51.612;5.536;2022-12-18T09:38:11;30.85;;;15.77;;
59786;SDS011;45672;51.612;5.536;2022-12-18T09:40:53;23.20;;;13.60;;
59786;SDS011;45672;51.612;5.536;2022-12-18T09:43:26;32.45;;;16.65;;
59786;SDS011;45672;51.612;5.536;2022-12-18T09:45:59;30.25;;;17.33;;
59786;SDS011;45672;51.612;5.536;2022-12-18T09:48:30;29.73;;;17.02;;
59786;SDS011;45672;51.612;5.536;2022-12-18T09:51:04;29.10;;;16.73;;
59786;SDS011;45672;51.612;5.536;2022-12-18T09:53:38;35.88;;;21.13;;
59786;SDS011;45672;51.612;5.536;2022-12-18T09:56:06;29.95;;;17.13;;
59786;SDS011;45672;51.612;5.536;2022-12-18T09:58:41;21.88;;;14.18;;
59786;SDS011;45672;51.612;5.536;2022-12-18T10:01:17;29.60;;;18.20;;
59786;SDS011;45672;51.612;5.536;2022-12-18T10:03:45;31.77;;;17.17;;
59786;SDS011;45672;51.612;5.536;2022-12-18T10:06:15;29.50;;;16.55;;
59786;SDS011;45672;51.612;5.536;2022-12-18T10:12:19;27.83;;;16.70;;
59786;SDS011;45672;51.612;5.536;2022-12-18T10:14:26;31.73;;;16.92;;
59786;SDS011;45672;51.612;5.536;2022-12-18T10:17:07;23.75;;;14.90;;
59786;SDS011;45672;51.612;5.536;2022-12-18T10:25:18;26.60;;;15.73;;
59786;SDS011;45672;51.612;5.536;2022-12-18T10:27:45;27.17;;;15.75;;
59786;SDS011;45672;51.612;5.536;2022-12-18T10:30:15;31.17;;;17.10;;
59786;SDS011;45672;51.612;5.536;2022-12-18T10:32:42;33.50;;;17.20;;
59786;SDS011;45672;51.612;5.536;2022-12-18T10:35:11;22.42;;;14.65;;
59786;SDS011;45672;51.612;5.536;2022-12-18T10:37:59;30.45;;;17.17;;
59786;SDS011;45672;51.612;5.536;2022-12-18T10:40:27;22.92;;;13.15;;
59786;SDS011;45672;51.612;5.536;2022-12-18T10:43:09;27.17;;;14.82;;
59786;SDS011;45672;51.612;5.536;2022-12-18T10:45:37;34.58;;;18.13;;
59786;SDS011;45672;51.612;5.536;2022-12-18T10:48:03;27.95;;;15.68;;
59786;SDS011;45672;51.612;5.536;2022-12-18T10:50:30;30.27;;;17.08;;
59786;SDS011;45672;51.612;5.536;2022-12-18T10:52:59;31.23;;;17.52;;
59786;SDS011;45672;51.612;5.536;2022-12-18T10:55:30;27.42;;;16.23;;
59786;SDS011;45672;51.612;5.536;2022-12-18T11:03:38;28.63;;;16.88;;
59786;SDS011;45672;51.612;5.536;2022-12-18T11:06:07;27.08;;;16.13;;
59786;SDS011;45672;51.612;5.536;2022-12-18T11:08:34;28.23;;;16.52;;
59786;SDS011;45672;51.612;5.536;2022-12-18T11:11:00;31.60;;;17.48;;
59786;SDS011;45672;51.612;5.536;2022-12-18T11:13:27;26.52;;;16.27;;
59786;SDS011;45672;51.612;5.536;2022-12-18T11:15:54;28.08;;;16.90;;
59786;SDS011;45672;51.612;5.536;2022-12-18T11:18:33;32.13;;;17.02;;
59786;SDS011;45672;51.612;5.536;2022-12-18T11:21:05;29.33;;;17.27;;
59786;SDS011;45672;51.612;5.536;2022-12-18T11:25:59;21.35;;;12.20;;
59786;SDS011;45672;51.612;5.536;2022-12-18T11:28:29;28.55;;;16.55;;
59786;SDS011;45672;51.612;5.536;2022-12-18T11:34:29;25.25;;;14.00;;
59786;SDS011;45672;51.612;5.536;2022-12-18T11:41:48;27.35;;;15.68;;
59786;SDS011;45672;51.612;5.536;2022-12-18T11:47:15;29.05;;;16.33;;
59786;SDS011;45672;51.612;5.536;2022-12-18T11:49:50;31.35;;;16.20;;
59786;SDS011;45672;51.612;5.536;2022-12-18T11:54:52;27.65;;;16.73;;
59786;SDS011;45672;51.612;5.536;2022-12-18T12:14:18;30.25;;;16.85;;
59786;SDS011;45672;51.612;5.536;2022-12-18T12:19:36;29.00;;;16.13;;
59786;SDS011;45672;51.612;5.536;2022-12-18T12:24:58;31.55;;;16.90;;
59786;SDS011;45672;51.612;5.536;2022-12-18T12:30:45;29.17;;;16.50;;
59786;SDS011;45672;51.612;5.536;2022-12-18T12:33:29;29.33;;;16.02;;
59786;SDS011;45672;51.612;5.536;2022-12-18T12:39:01;30.38;;;17.08;;
59786;SDS011;45672;51.612;5.536;2022-12-18T12:41:32;31.33;;;17.17;;
59786;SDS011;45672;51.612;5.536;2022-12-18T12:44:37;28.30;;;17.02;;
59786;SDS011;45672;51.612;5.536;2022-12-18T12:47:20;26.10;;;14.75;;
59786;SDS011;45672;51.612;5.536;2022-12-18T12:49:47;25.80;;;15.23;;
59786;SDS011;45672;51.612;5.536;2022-12-18T12:52:15;28.88;;;17.20;;
59786;SDS011;45672;51.612;5.536;2022-12-18T12:54:46;22.65;;;13.68;;
59786;SDS011;45672;51.612;5.536;2022-12-18T12:57:19;27.40;;;15.95;;
59786;SDS011;45672;51.612;5.536;2022-12-18T13:00:09;26.20;;;15.80;;
59786;SDS011;45672;51.612;5.536;2022-12-18T13:05:39;31.10;;;13.32;;
59786;SDS011;45672;51.612;5.536;2022-12-18T13:08:25;33.10;;;15.77;;
59786;SDS011;45672;51.612;5.536;2022-12-18T13:10:52;26.38;;;15.60;;
59786;SDS011;45672;51.612;5.536;2022-12-18T13:13:49;28.52;;;16.52;;
59786;SDS011;45672;51.612;5.536;2022-12-18T13:16:20;32.05;;;17.42;;
59786;SDS011;45672;51.612;5.536;2022-12-18T13:18:54;21.25;;;12.63;;
59786;SDS011;45672;51.612;5.536;2022-12-18T13:21:24;30.98;;;16.15;;
59786;SDS011;45672;51.612;5.536;2022-12-18T13:23:54;31.10;;;17.92;;
59786;SDS011;45672;51.612;5.536;2022-12-18T13:28:53;37.75;;;20.15;;
59786;SDS011;45672;51.612;5.536;2022-12-18T13:34:14;29.92;;;17.52;;
59786;SDS011;45672;51.612;5.536;2022-12-18T13:36:42;32.55;;;17.45;;
59786;SDS011;45672;51.612;5.536;2022-12-18T13:39:09;28.90;;;16.02;;
59786;SDS011;45672;51.612;5.536;2022-12-18T13:41:35;30.35;;;16.63;;
59786;SDS011;45672;51.612;5.536;2022-12-18T13:46:57;28.85;;;16.95;;
59786;SDS011;45672;51.612;5.536;2022-12-18T13:49:25;30.50;;;17.63;;
59786;SDS011;45672;51.612;5.536;2022-12-18T13:52:00;30.65;;;17.83;;
59786;SDS011;45672;51.612;5.536;2022-12-18T13:54:36;30.98;;;17.83;;
59786;SDS011;45672;51.612;5.536;2022-12-18T13:57:05;32.25;;;18.20;;
59786;SDS011;45672;51.612;5.536;2022-12-18T13:59:49;28.90;;;17.35;;
59786;SDS011;45672;51.612;5.536;2022-12-18T14:02:16;32.58;;;17.73;;
59786;SDS011;45672;51.612;5.536;2022-12-18T14:04:46;32.47;;;17.40;;
59786;SDS011;45672;51.612;5.536;2022-12-18T14:07:16;30.58;;;16.42;;
59786;SDS011;45672;51.612;5.536;2022-12-18T14:09:51;31.52;;;18.10;;
59786;SDS011;45672;51.612;5.536;2022-12-18T14:12:20;35.08;;;18.27;;
59786;SDS011;45672;51.612;5.536;2022-12-18T14:20:46;28.60;;;16.48;;
59786;SDS011;45672;51.612;5.536;2022-12-18T14:25:56;33.85;;;17.30;;
59786;SDS011;45672;51.612;5.536;2022-12-18T14:28:22;30.95;;;18.23;;
59786;SDS011;45672;51.612;5.536;2022-12-18T14:30:48;34.55;;;17.63;;
59786;SDS011;45672;51.612;5.536;2022-12-18T14:35:54;35.35;;;17.92;;
59786;SDS011;45672;51.612;5.536;2022-12-18T14:40:57;30.35;;;18.38;;
59786;SDS011;45672;51.612;5.536;2022-12-18T14:43:23;33.95;;;18.02;;
59786;SDS011;45672;51.612;5.536;2022-12-18T14:45:49;35.30;;;18.73;;
59786;SDS011;45672;51.612;5.536;2022-12-18T14:48:17;31.60;;;18.10;;
59786;SDS011;45672;51.612;5.536;2022-12-18T14:50:43;35.38;;;18.50;;
59786;SDS011;45672;51.612;5.536;2022-12-18T14:53:18;33.70;;;18.88;;
59786;SDS011;45672;51.612;5.536;2022-12-18T14:55:56;25.60;;;14.13;;
59786;SDS011;45672;51.612;5.536;2022-12-18T14:58:21;35.33;;;18.17;;
59786;SDS011;45672;51.612;5.536;2022-12-18T15:00:47;27.60;;;14.60;;
59786;SDS011;45672;51.612;5.536;2022-12-18T15:03:14;31.08;;;18.20;;
59786;SDS011;45672;51.612;5.536;2022-12-18T15:05:44;27.60;;;16.15;;
59786;SDS011;45672;51.612;5.536;2022-12-18T15:17:05;26.50;;;16.23;;
59786;SDS011;45672;51.612;5.536;2022-12-18T15:19:41;36.55;;;19.73;;
59786;SDS011;45672;51.612;5.536;2022-12-18T15:22:28;31.77;;;18.65;;
59786;SDS011;45672;51.612;5.536;2022-12-18T15:24:55;34.67;;;18.77;;
59786;SDS011;45672;51.612;5.536;2022-12-18T15:27:27;32.40;;;18.42;;
59786;SDS011;45672;51.612;5.536;2022-12-18T15:32:33;29.73;;;16.27;;
59786;SDS011;45672;51.612;5.536;2022-12-18T15:35:18;34.20;;;18.27;;
59786;SDS011;45672;51.612;5.536;2022-12-18T15:37:48;34.05;;;18.75;;
59786;SDS011;45672;51.612;5.536;2022-12-18T15:40:18;37.55;;;19.27;;
59786;SDS011;45672;51.612;5.536;2022-12-18T15:42:48;39.55;;;21.33;;
59786;SDS011;45672;51.612;5.536;2022-12-18T15:45:36;34.83;;;18.73;;
59786;SDS011;45672;51.612;5.536;2022-12-18T15:48:04;34.17;;;17.75;;
59786;SDS011;45672;51.612;5.536;2022-12-18T15:50:37;31.77;;;18.20;;
59786;SDS011;45672;51.612;5.536;2022-12-18T15:53:02;32.83;;;18.00;;
59786;SDS011;45672;51.612;5.536;2022-12-18T15:55:27;36.67;;;19.30;;
59786;SDS011;45672;51.612;5.536;2022-12-18T15:58:13;34.92;;;18.27;;
59786;SDS011;45672;51.612;5.536;2022-12-18T16:00:39;43.28;;;19.38;;
59786;SDS011;45672;51.612;5.536;2022-12-18T16:03:05;32.47;;;17.73;;
59786;SDS011;45672;51.612;5.536;2022-12-18T16:05:30;31.70;;;17.85;;
59786;SDS011;45672;51.612;5.536;2022-12-18T16:07:56;28.75;;;14.68;;
59786;SDS011;45672;51.612;5.536;2022-12-18T16:10:21;30.23;;;17.27;;
59786;SDS011;45672;51.612;5.536;2022-12-18T16:12:48;35.35;;;18.40;;
59786;SDS011;45672;51.612;5.536;2022-12-18T16:15:14;39.70;;;19.25;;
59786;SDS011;45672;51.612;5.536;2022-12-18T16:17:41;30.70;;;18.27;;
59786;SDS011;45672;51.612;5.536;2022-12-18T16:20:17;41.25;;;20.00;;
59786;SDS011;45672;51.612;5.536;2022-12-18T16:22:45;39.70;;;18.40;;
59786;SDS011;45672;51.612;5.536;2022-12-18T16:25:20;32.60;;;17.60;;
59786;SDS011;45672;51.612;5.536;2022-12-18T16:27:47;30.77;;;17.92;;
59786;SDS011;45672;51.612;5.536;2022-12-18T16:30:14;30.85;;;18.02;;
59786;SDS011;45672;51.612;5.536;2022-12-18T16:32:44;37.25;;;15.82;;
59786;SDS011;45672;51.612;5.536;2022-12-18T16:35:10;31.67;;;16.77;;
59786;SDS011;45672;51.612;5.536;2022-12-18T16:37:36;28.05;;;15.60;;
59786;SDS011;45672;51.612;5.536;2022-12-18T16:40:02;22.98;;;14.77;;
59786;SDS011;45672;51.612;5.536;2022-12-18T16:42:28;31.30;;;17.25;;
59786;SDS011;45672;51.612;5.536;2022-12-18T16:44:53;31.63;;;15.65;;
59786;SDS011;45672;51.612;5.536;2022-12-18T16:47:18;30.70;;;16.63;;
59786;SDS011;45672;51.612;5.536;2022-12-18T16:49:44;25.70;;;14.05;;
59786;SDS011;45672;51.612;5.536;2022-12-18T16:52:10;47.65;;;25.67;;
59786;SDS011;45672;51.612;5.536;2022-12-18T16:54:35;29.42;;;16.35;;